sensor_id;sensor_type;location;lat;lon;timestamp;P1;durP1;ratioP1;P2;durP2;ratioP2
19339;SDS011;9804;52.350;6.684;2023-06-22T00:01:21;19.58;;;15.77;;
19339;SDS011;9804;52.350;6.684;2023-06-22T00:03:49;17.05;;;15.05;;
19339;SDS011;9804;52.350;6.684;2023-06-22T00:06:15;21.17;;;16.05;;
19339;SDS011;9804;52.350;6.684;2023-06-22T00:08:41;19.05;;;15.55;;
19339;SDS011;9804;52.350;6.684;2023-06-22T00:11:06;18.67;;;16.77;;
19339;SDS011;9804;52.350;6.684;2023-06-22T00:13:31;18.83;;;16.00;;
19339;SDS011;9804;52.350;6.684;2023-06-22T00:15:57;20.42;;;16.55;;
19339;SDS011;9804;52.350;6.684;2023-06-22T00:18:22;17.23;;;15.40;;
19339;SDS011;9804;52.350;6.684;2023-06-22T00:20:52;17.33;;;15.60;;
19339;SDS011;9804;52.350;6.684;2023-06-22T00:23:21;18.48;;;16.45;;
19339;SDS011;9804;52.350;6.684;2023-06-22T00:25:49;19.70;;;15.93;;
19339;SDS011;9804;52.350;6.684;2023-06-22T00:28:14;17.08;;;15.38;;
19339;SDS011;9804;52.350;6.684;2023-06-22T00:30:40;17.90;;;16.02;;
19339;SDS011;9804;52.350;6.684;2023-06-22T00:33:05;19.77;;;15.80;;
19339;SDS011;9804;52.350;6.684;2023-06-22T00:35:32;19.95;;;16.77;;
19339;SDS011;9804;52.350;6.684;2023-06-22T00:37:59;22.90;;;17.35;;
19339;SDS011;9804;52.350;6.684;2023-06-22T00:40:26;19.75;;;16.80;;
19339;SDS011;9804;52.350;6.684;2023-06-22T00:42:53;22.50;;;17.52;;
19339;SDS011;9804;52.350;6.684;2023-06-22T00:45:18;18.80;;;16.98;;
19339;SDS011;9804;52.350;6.684;2023-06-22T00:47:44;18.58;;;16.33;;
19339;SDS011;9804;52.350;6.684;2023-06-22T00:50:09;20.08;;;17.45;;
19339;SDS011;9804;52.350;6.684;2023-06-22T00:52:43;19.75;;;17.63;;
19339;SDS011;9804;52.350;6.684;2023-06-22T00:55:09;21.33;;;18.02;;
19339;SDS011;9804;52.350;6.684;2023-06-22T00:57:35;25.23;;;19.50;;
19339;SDS011;9804;52.350;6.684;2023-06-22T01:00:02;24.38;;;19.92;;
19339;SDS011;9804;52.350;6.684;2023-06-22T01:02:31;26.80;;;20.42;;
19339;SDS011;9804;52.350;6.684;2023-06-22T01:04:56;25.27;;;21.55;;
19339;SDS011;9804;52.350;6.684;2023-06-22T01:07:28;31.02;;;23.75;;
19339;SDS011;9804;52.350;6.684;2023-06-22T01:10:05;24.10;;;20.48;;
19339;SDS011;9804;52.350;6.684;2023-06-22T01:12:38;24.52;;;21.33;;
19339;SDS011;9804;52.350;6.684;2023-06-22T01:15:10;28.88;;;25.45;;
19339;SDS011;9804;52.350;6.684;2023-06-22T01:17:46;25.77;;;23.13;;
19339;SDS011;9804;52.350;6.684;2023-06-22T01:20:13;29.92;;;26.13;;
19339;SDS011;9804;52.350;6.684;2023-06-22T01:22:46;31.40;;;24.83;;
19339;SDS011;9804;52.350;6.684;2023-06-22T01:25:31;26.60;;;23.55;;
19339;SDS011;9804;52.350;6.684;2023-06-22T01:30:56;27.70;;;24.80;;
19339;SDS011;9804;52.350;6.684;2023-06-22T01:33:30;26.30;;;23.48;;
19339;SDS011;9804;52.350;6.684;2023-06-22T01:35:59;28.40;;;24.98;;
19339;SDS011;9804;52.350;6.684;2023-06-22T01:38:26;32.40;;;26.35;;
19339;SDS011;9804;52.350;6.684;2023-06-22T01:40:52;32.35;;;28.88;;
19339;SDS011;9804;52.350;6.684;2023-06-22T01:43:19;31.63;;;27.73;;
19339;SDS011;9804;52.350;6.684;2023-06-22T01:45:48;36.53;;;28.50;;
19339;SDS011;9804;52.350;6.684;2023-06-22T01:48:13;32.08;;;27.73;;
19339;SDS011;9804;52.350;6.684;2023-06-22T01:50:39;35.15;;;31.15;;
19339;SDS011;9804;52.350;6.684;2023-06-22T01:53:05;38.05;;;29.75;;
19339;SDS011;9804;52.350;6.684;2023-06-22T01:55:31;35.10;;;30.48;;
19339;SDS011;9804;52.350;6.684;2023-06-22T01:57:57;44.42;;;32.63;;
19339;SDS011;9804;52.350;6.684;2023-06-22T02:00:22;40.67;;;32.58;;
19339;SDS011;9804;52.350;6.684;2023-06-22T02:02:53;37.22;;;32.78;;
19339;SDS011;9804;52.350;6.684;2023-06-22T02:05:34;42.47;;;35.03;;
19339;SDS011;9804;52.350;6.684;2023-06-22T02:08:07;43.60;;;35.58;;
19339;SDS011;9804;52.350;6.684;2023-06-22T02:10:36;46.45;;;35.40;;
19339;SDS011;9804;52.350;6.684;2023-06-22T02:13:04;41.38;;;36.53;;
19339;SDS011;9804;52.350;6.684;2023-06-22T02:15:31;45.28;;;38.03;;
19339;SDS011;9804;52.350;6.684;2023-06-22T02:17:57;52.72;;;40.20;;
19339;SDS011;9804;52.350;6.684;2023-06-22T02:20:23;49.88;;;39.15;;
19339;SDS011;9804;52.350;6.684;2023-06-22T02:22:49;46.42;;;39.67;;
19339;SDS011;9804;52.350;6.684;2023-06-22T02:25:14;53.70;;;44.42;;
19339;SDS011;9804;52.350;6.684;2023-06-22T02:27:39;54.83;;;43.85;;
19339;SDS011;9804;52.350;6.684;2023-06-22T02:30:06;56.15;;;45.47;;
19339;SDS011;9804;52.350;6.684;2023-06-22T02:32:33;57.67;;;46.80;;
19339;SDS011;9804;52.350;6.684;2023-06-22T02:35:00;55.20;;;45.67;;
19339;SDS011;9804;52.350;6.684;2023-06-22T02:37:29;54.85;;;44.60;;
19339;SDS011;9804;52.350;6.684;2023-06-22T02:39:54;60.95;;;45.83;;
19339;SDS011;9804;52.350;6.684;2023-06-22T02:42:20;53.03;;;43.50;;
19339;SDS011;9804;52.350;6.684;2023-06-22T02:44:46;56.13;;;43.97;;
19339;SDS011;9804;52.350;6.684;2023-06-22T02:47:12;57.50;;;44.55;;
19339;SDS011;9804;52.350;6.684;2023-06-22T02:49:37;58.05;;;45.22;;
19339;SDS011;9804;52.350;6.684;2023-06-22T02:52:03;59.53;;;47.58;;
19339;SDS011;9804;52.350;6.684;2023-06-22T02:54:28;58.78;;;47.28;;
19339;SDS011;9804;52.350;6.684;2023-06-22T02:56:54;61.13;;;49.28;;
19339;SDS011;9804;52.350;6.684;2023-06-22T02:59:19;57.22;;;46.58;;
19339;SDS011;9804;52.350;6.684;2023-06-22T03:01:48;60.00;;;47.40;;
19339;SDS011;9804;52.350;6.684;2023-06-22T03:04:15;61.92;;;48.08;;
19339;SDS011;9804;52.350;6.684;2023-06-22T03:06:41;64.38;;;49.03;;
19339;SDS011;9804;52.350;6.684;2023-06-22T03:09:06;60.22;;;48.38;;
19339;SDS011;9804;52.350;6.684;2023-06-22T03:11:32;59.20;;;47.67;;
19339;SDS011;9804;52.350;6.684;2023-06-22T03:13:59;62.80;;;49.95;;
19339;SDS011;9804;52.350;6.684;2023-06-22T03:16:24;65.18;;;49.50;;
19339;SDS011;9804;52.350;6.684;2023-06-22T03:18:50;71.82;;;52.97;;
19339;SDS011;9804;52.350;6.684;2023-06-22T03:21:16;73.35;;;56.42;;
19339;SDS011;9804;52.350;6.684;2023-06-22T03:23:41;75.05;;;56.22;;
19339;SDS011;9804;52.350;6.684;2023-06-22T03:26:08;77.15;;;57.00;;
19339;SDS011;9804;52.350;6.684;2023-06-22T03:28:34;82.60;;;59.58;;
19339;SDS011;9804;52.350;6.684;2023-06-22T03:31:00;75.22;;;56.88;;
19339;SDS011;9804;52.350;6.684;2023-06-22T03:33:25;70.80;;;55.03;;
19339;SDS011;9804;52.350;6.684;2023-06-22T03:35:51;81.68;;;59.63;;
19339;SDS011;9804;52.350;6.684;2023-06-22T03:38:17;87.13;;;61.08;;
19339;SDS011;9804;52.350;6.684;2023-06-22T03:40:42;82.00;;;61.47;;
19339;SDS011;9804;52.350;6.684;2023-06-22T03:43:08;83.45;;;62.63;;
19339;SDS011;9804;52.350;6.684;2023-06-22T03:45:34;78.85;;;60.92;;
19339;SDS011;9804;52.350;6.684;2023-06-22T03:48:00;86.22;;;62.53;;
19339;SDS011;9804;52.350;6.684;2023-06-22T03:50:26;86.10;;;61.53;;
19339;SDS011;9804;52.350;6.684;2023-06-22T03:52:51;84.32;;;62.25;;
19339;SDS011;9804;52.350;6.684;2023-06-22T03:55:17;82.35;;;61.85;;
19339;SDS011;9804;52.350;6.684;2023-06-22T03:57:44;79.03;;;59.80;;
19339;SDS011;9804;52.350;6.684;2023-06-22T04:00:09;82.60;;;59.67;;
19339;SDS011;9804;52.350;6.684;2023-06-22T04:02:36;84.97;;;60.75;;
19339;SDS011;9804;52.350;6.684;2023-06-22T04:05:01;83.50;;;59.42;;
19339;SDS011;9804;52.350;6.684;2023-06-22T04:07:26;78.43;;;58.55;;
19339;SDS011;9804;52.350;6.684;2023-06-22T04:09:52;73.72;;;57.25;;
19339;SDS011;9804;52.350;6.684;2023-06-22T04:12:17;75.75;;;57.55;;
19339;SDS011;9804;52.350;6.684;2023-06-22T04:14:42;74.72;;;57.08;;
19339;SDS011;9804;52.350;6.684;2023-06-22T04:17:08;74.40;;;56.60;;
19339;SDS011;9804;52.350;6.684;2023-06-22T04:19:33;78.32;;;57.58;;
19339;SDS011;9804;52.350;6.684;2023-06-22T04:21:58;68.38;;;52.72;;
19339;SDS011;9804;52.350;6.684;2023-06-22T04:24:24;73.63;;;54.95;;
19339;SDS011;9804;52.350;6.684;2023-06-22T04:26:49;72.28;;;54.72;;
19339;SDS011;9804;52.350;6.684;2023-06-22T04:29:19;73.20;;;52.97;;
19339;SDS011;9804;52.350;6.684;2023-06-22T04:31:45;72.43;;;53.88;;
19339;SDS011;9804;52.350;6.684;2023-06-22T04:34:15;72.28;;;54.58;;
19339;SDS011;9804;52.350;6.684;2023-06-22T04:36:41;72.75;;;53.35;;
19339;SDS011;9804;52.350;6.684;2023-06-22T04:39:10;73.57;;;56.53;;
19339;SDS011;9804;52.350;6.684;2023-06-22T04:41:39;68.65;;;54.42;;
19339;SDS011;9804;52.350;6.684;2023-06-22T04:44:11;71.78;;;54.20;;
19339;SDS011;9804;52.350;6.684;2023-06-22T04:46:37;73.03;;;54.70;;
19339;SDS011;9804;52.350;6.684;2023-06-22T04:49:04;67.22;;;53.55;;
19339;SDS011;9804;52.350;6.684;2023-06-22T04:51:31;71.80;;;53.50;;
19339;SDS011;9804;52.350;6.684;2023-06-22T04:53:57;62.75;;;49.92;;
19339;SDS011;9804;52.350;6.684;2023-06-22T04:56:26;61.22;;;48.80;;
19339;SDS011;9804;52.350;6.684;2023-06-22T04:58:53;62.17;;;48.55;;
19339;SDS011;9804;52.350;6.684;2023-06-22T05:01:21;58.25;;;46.95;;
19339;SDS011;9804;52.350;6.684;2023-06-22T05:03:47;58.03;;;44.80;;
19339;SDS011;9804;52.350;6.684;2023-06-22T05:06:13;49.20;;;42.22;;
19339;SDS011;9804;52.350;6.684;2023-06-22T05:08:39;51.50;;;41.60;;
19339;SDS011;9804;52.350;6.684;2023-06-22T05:11:04;49.05;;;40.58;;
19339;SDS011;9804;52.350;6.684;2023-06-22T05:13:30;46.88;;;39.95;;
19339;SDS011;9804;52.350;6.684;2023-06-22T05:15:55;43.97;;;37.95;;
19339;SDS011;9804;52.350;6.684;2023-06-22T05:18:26;42.60;;;35.85;;
19339;SDS011;9804;52.350;6.684;2023-06-22T05:20:55;43.03;;;36.45;;
19339;SDS011;9804;52.350;6.684;2023-06-22T05:23:20;38.38;;;33.63;;
19339;SDS011;9804;52.350;6.684;2023-06-22T05:25:46;42.17;;;34.60;;
19339;SDS011;9804;52.350;6.684;2023-06-22T05:28:11;41.13;;;33.63;;
19339;SDS011;9804;52.350;6.684;2023-06-22T05:30:37;41.55;;;32.40;;
19339;SDS011;9804;52.350;6.684;2023-06-22T05:33:03;37.38;;;31.83;;
19339;SDS011;9804;52.350;6.684;2023-06-22T05:35:28;35.67;;;30.40;;
19339;SDS011;9804;52.350;6.684;2023-06-22T05:37:54;35.90;;;30.80;;
19339;SDS011;9804;52.350;6.684;2023-06-22T05:40:20;34.72;;;28.48;;
19339;SDS011;9804;52.350;6.684;2023-06-22T05:42:45;32.72;;;29.05;;
19339;SDS011;9804;52.350;6.684;2023-06-22T05:45:11;30.65;;;26.13;;
19339;SDS011;9804;52.350;6.684;2023-06-22T05:47:36;28.65;;;25.55;;
19339;SDS011;9804;52.350;6.684;2023-06-22T05:50:01;26.25;;;23.40;;
19339;SDS011;9804;52.350;6.684;2023-06-22T05:52:31;25.83;;;23.05;;
19339;SDS011;9804;52.350;6.684;2023-06-22T05:54:57;23.92;;;21.35;;
19339;SDS011;9804;52.350;6.684;2023-06-22T05:57:22;25.67;;;21.55;;
19339;SDS011;9804;52.350;6.684;2023-06-22T05:59:47;26.77;;;20.55;;
19339;SDS011;9804;52.350;6.684;2023-06-22T06:02:13;25.02;;;19.70;;
19339;SDS011;9804;52.350;6.684;2023-06-22T06:04:39;24.67;;;18.55;;
19339;SDS011;9804;52.350;6.684;2023-06-22T06:07:04;22.20;;;18.17;;
19339;SDS011;9804;52.350;6.684;2023-06-22T06:09:29;19.08;;;16.75;;
19339;SDS011;9804;52.350;6.684;2023-06-22T06:11:55;18.58;;;16.05;;
19339;SDS011;9804;52.350;6.684;2023-06-22T06:14:21;16.92;;;14.82;;
19339;SDS011;9804;52.350;6.684;2023-06-22T06:16:46;18.45;;;14.40;;
19339;SDS011;9804;52.350;6.684;2023-06-22T06:19:12;14.85;;;13.30;;
19339;SDS011;9804;52.350;6.684;2023-06-22T06:21:38;16.08;;;12.93;;
19339;SDS011;9804;52.350;6.684;2023-06-22T06:24:03;15.32;;;12.82;;
19339;SDS011;9804;52.350;6.684;2023-06-22T06:26:29;16.52;;;13.57;;
19339;SDS011;9804;52.350;6.684;2023-06-22T06:28:57;16.25;;;13.18;;
19339;SDS011;9804;52.350;6.684;2023-06-22T06:31:23;15.30;;;12.38;;
19339;SDS011;9804;52.350;6.684;2023-06-22T06:33:49;15.60;;;12.63;;
19339;SDS011;9804;52.350;6.684;2023-06-22T06:36:15;15.63;;;12.23;;
19339;SDS011;9804;52.350;6.684;2023-06-22T06:38:41;14.88;;;12.30;;
19339;SDS011;9804;52.350;6.684;2023-06-22T06:41:06;14.52;;;12.60;;
19339;SDS011;9804;52.350;6.684;2023-06-22T06:43:32;13.75;;;12.27;;
19339;SDS011;9804;52.350;6.684;2023-06-22T06:45:57;20.88;;;13.00;;
19339;SDS011;9804;52.350;6.684;2023-06-22T06:48:23;16.55;;;12.00;;
19339;SDS011;9804;52.350;6.684;2023-06-22T06:50:48;15.93;;;12.80;;
19339;SDS011;9804;52.350;6.684;2023-06-22T06:53:13;15.45;;;13.00;;
19339;SDS011;9804;52.350;6.684;2023-06-22T06:55:39;14.98;;;11.13;;
19339;SDS011;9804;52.350;6.684;2023-06-22T06:58:04;15.38;;;11.27;;
19339;SDS011;9804;52.350;6.684;2023-06-22T07:00:32;15.55;;;12.20;;
19339;SDS011;9804;52.350;6.684;2023-06-22T07:02:58;14.95;;;11.68;;
19339;SDS011;9804;52.350;6.684;2023-06-22T07:05:23;20.52;;;12.40;;
19339;SDS011;9804;52.350;6.684;2023-06-22T07:07:48;17.27;;;12.80;;
19339;SDS011;9804;52.350;6.684;2023-06-22T07:10:14;13.98;;;11.35;;
19339;SDS011;9804;52.350;6.684;2023-06-22T07:12:40;17.10;;;12.55;;
19339;SDS011;9804;52.350;6.684;2023-06-22T07:15:06;16.55;;;11.82;;
19339;SDS011;9804;52.350;6.684;2023-06-22T07:17:33;16.52;;;11.68;;
19339;SDS011;9804;52.350;6.684;2023-06-22T07:19:59;14.13;;;12.07;;
19339;SDS011;9804;52.350;6.684;2023-06-22T07:22:26;12.52;;;10.77;;
19339;SDS011;9804;52.350;6.684;2023-06-22T07:24:51;13.98;;;10.98;;
19339;SDS011;9804;52.350;6.684;2023-06-22T07:27:17;13.10;;;11.10;;
19339;SDS011;9804;52.350;6.684;2023-06-22T07:29:46;15.18;;;12.60;;
19339;SDS011;9804;52.350;6.684;2023-06-22T07:32:11;20.92;;;12.98;;
19339;SDS011;9804;52.350;6.684;2023-06-22T07:34:37;29.08;;;14.48;;
19339;SDS011;9804;52.350;6.684;2023-06-22T07:37:02;28.00;;;15.18;;
19339;SDS011;9804;52.350;6.684;2023-06-22T07:39:29;19.17;;;12.55;;
19339;SDS011;9804;52.350;6.684;2023-06-22T07:41:54;15.90;;;12.15;;
19339;SDS011;9804;52.350;6.684;2023-06-22T07:44:20;14.88;;;11.25;;
19339;SDS011;9804;52.350;6.684;2023-06-22T07:46:45;24.83;;;12.45;;
19339;SDS011;9804;52.350;6.684;2023-06-22T07:49:11;18.08;;;12.68;;
19339;SDS011;9804;52.350;6.684;2023-06-22T07:51:36;58.15;;;14.13;;
19339;SDS011;9804;52.350;6.684;2023-06-22T07:54:02;15.15;;;12.50;;
19339;SDS011;9804;52.350;6.684;2023-06-22T07:56:27;13.32;;;10.88;;
19339;SDS011;9804;52.350;6.684;2023-06-22T07:58:53;15.45;;;10.95;;
19339;SDS011;9804;52.350;6.684;2023-06-22T08:01:18;12.55;;;10.93;;
19339;SDS011;9804;52.350;6.684;2023-06-22T08:03:46;14.10;;;10.65;;
19339;SDS011;9804;52.350;6.684;2023-06-22T08:06:13;13.75;;;10.85;;
19339;SDS011;9804;52.350;6.684;2023-06-22T08:08:38;12.30;;;10.93;;
19339;SDS011;9804;52.350;6.684;2023-06-22T08:11:04;15.73;;;10.93;;
19339;SDS011;9804;52.350;6.684;2023-06-22T08:13:30;14.95;;;9.73;;
19339;SDS011;9804;52.350;6.684;2023-06-22T08:15:56;12.40;;;9.82;;
19339;SDS011;9804;52.350;6.684;2023-06-22T08:18:21;10.43;;;9.23;;
19339;SDS011;9804;52.350;6.684;2023-06-22T08:20:47;13.18;;;9.70;;
19339;SDS011;9804;52.350;6.684;2023-06-22T08:23:12;12.60;;;8.70;;
19339;SDS011;9804;52.350;6.684;2023-06-22T08:25:37;11.52;;;9.77;;
19339;SDS011;9804;52.350;6.684;2023-06-22T08:28:03;22.55;;;18.27;;
19339;SDS011;9804;52.350;6.684;2023-06-22T08:30:29;11.10;;;9.10;;
19339;SDS011;9804;52.350;6.684;2023-06-22T08:32:54;14.45;;;9.07;;
19339;SDS011;9804;52.350;6.684;2023-06-22T08:35:20;13.02;;;9.10;;
19339;SDS011;9804;52.350;6.684;2023-06-22T08:37:47;13.30;;;8.93;;
19339;SDS011;9804;52.350;6.684;2023-06-22T08:40:16;10.35;;;7.85;;
19339;SDS011;9804;52.350;6.684;2023-06-22T08:42:42;10.02;;;8.43;;
19339;SDS011;9804;52.350;6.684;2023-06-22T08:45:07;10.63;;;7.53;;
19339;SDS011;9804;52.350;6.684;2023-06-22T08:47:33;9.18;;;7.43;;
19339;SDS011;9804;52.350;6.684;2023-06-22T08:49:59;8.20;;;7.30;;
19339;SDS011;9804;52.350;6.684;2023-06-22T08:52:27;12.52;;;6.85;;
19339;SDS011;9804;52.350;6.684;2023-06-22T08:54:52;9.98;;;6.65;;
19339;SDS011;9804;52.350;6.684;2023-06-22T08:57:17;8.25;;;7.45;;
19339;SDS011;9804;52.350;6.684;2023-06-22T08:59:43;8.90;;;6.70;;
19339;SDS011;9804;52.350;6.684;2023-06-22T09:02:08;10.20;;;7.40;;
19339;SDS011;9804;52.350;6.684;2023-06-22T09:04:34;9.48;;;7.22;;
19339;SDS011;9804;52.350;6.684;2023-06-22T09:07:02;9.95;;;7.30;;
19339;SDS011;9804;52.350;6.684;2023-06-22T09:09:27;8.50;;;7.63;;
19339;SDS011;9804;52.350;6.684;2023-06-22T09:11:53;8.43;;;7.13;;
19339;SDS011;9804;52.350;6.684;2023-06-22T09:14:18;9.57;;;6.43;;
19339;SDS011;9804;52.350;6.684;2023-06-22T09:16:43;10.80;;;7.55;;
19339;SDS011;9804;52.350;6.684;2023-06-22T09:19:09;8.30;;;6.85;;
19339;SDS011;9804;52.350;6.684;2023-06-22T09:21:34;9.38;;;7.38;;
19339;SDS011;9804;52.350;6.684;2023-06-22T09:23:59;11.63;;;6.97;;
19339;SDS011;9804;52.350;6.684;2023-06-22T09:26:25;9.70;;;6.85;;
19339;SDS011;9804;52.350;6.684;2023-06-22T09:28:50;11.30;;;7.45;;
19339;SDS011;9804;52.350;6.684;2023-06-22T09:31:16;10.55;;;7.70;;
19339;SDS011;9804;52.350;6.684;2023-06-22T09:33:42;9.52;;;6.95;;
19339;SDS011;9804;52.350;6.684;2023-06-22T09:36:07;9.75;;;7.82;;
19339;SDS011;9804;52.350;6.684;2023-06-22T09:38:36;10.10;;;7.90;;
19339;SDS011;9804;52.350;6.684;2023-06-22T09:41:02;9.73;;;6.82;;
19339;SDS011;9804;52.350;6.684;2023-06-22T09:43:27;11.32;;;7.63;;
19339;SDS011;9804;52.350;6.684;2023-06-22T09:45:53;10.65;;;7.65;;
19339;SDS011;9804;52.350;6.684;2023-06-22T09:48:18;8.52;;;7.03;;
19339;SDS011;9804;52.350;6.684;2023-06-22T09:50:44;9.25;;;7.38;;
19339;SDS011;9804;52.350;6.684;2023-06-22T09:53:09;9.65;;;6.57;;
19339;SDS011;9804;52.350;6.684;2023-06-22T09:55:34;10.10;;;7.88;;
19339;SDS011;9804;52.350;6.684;2023-06-22T09:58:00;12.68;;;7.70;;
19339;SDS011;9804;52.350;6.684;2023-06-22T10:00:25;8.57;;;7.68;;
19339;SDS011;9804;52.350;6.684;2023-06-22T10:02:51;8.70;;;7.35;;
19339;SDS011;9804;52.350;6.684;2023-06-22T10:05:17;8.07;;;7.30;;
19339;SDS011;9804;52.350;6.684;2023-06-22T10:07:43;12.90;;;8.05;;
19339;SDS011;9804;52.350;6.684;2023-06-22T10:10:09;8.77;;;7.20;;
19339;SDS011;9804;52.350;6.684;2023-06-22T10:12:35;10.50;;;8.02;;
19339;SDS011;9804;52.350;6.684;2023-06-22T10:15:01;7.68;;;6.95;;
19339;SDS011;9804;52.350;6.684;2023-06-22T10:17:26;7.97;;;7.07;;
19339;SDS011;9804;52.350;6.684;2023-06-22T10:19:51;8.88;;;7.97;;
19339;SDS011;9804;52.350;6.684;2023-06-22T10:22:17;10.75;;;8.18;;
19339;SDS011;9804;52.350;6.684;2023-06-22T10:24:43;10.65;;;7.78;;
19339;SDS011;9804;52.350;6.684;2023-06-22T10:27:12;9.25;;;8.40;;
19339;SDS011;9804;52.350;6.684;2023-06-22T10:29:38;11.13;;;9.65;;
19339;SDS011;9804;52.350;6.684;2023-06-22T10:32:04;9.35;;;8.35;;
19339;SDS011;9804;52.350;6.684;2023-06-22T10:34:30;15.40;;;11.90;;
19339;SDS011;9804;52.350;6.684;2023-06-22T10:36:55;12.25;;;9.90;;
19339;SDS011;9804;52.350;6.684;2023-06-22T10:39:21;13.32;;;9.63;;
19339;SDS011;9804;52.350;6.684;2023-06-22T10:41:46;12.82;;;9.20;;
19339;SDS011;9804;52.350;6.684;2023-06-22T10:44:11;16.35;;;11.60;;
19339;SDS011;9804;52.350;6.684;2023-06-22T10:46:37;15.23;;;10.30;;
19339;SDS011;9804;52.350;6.684;2023-06-22T10:49:02;16.38;;;11.93;;
19339;SDS011;9804;52.350;6.684;2023-06-22T10:51:28;12.05;;;8.57;;
19339;SDS011;9804;52.350;6.684;2023-06-22T10:53:53;12.13;;;9.00;;
19339;SDS011;9804;52.350;6.684;2023-06-22T10:56:19;11.63;;;10.15;;
19339;SDS011;9804;52.350;6.684;2023-06-22T10:58:44;11.15;;;8.98;;
19339;SDS011;9804;52.350;6.684;2023-06-22T11:01:10;12.02;;;8.95;;
19339;SDS011;9804;52.350;6.684;2023-06-22T11:03:36;11.07;;;8.80;;
19339;SDS011;9804;52.350;6.684;2023-06-22T11:06:01;11.45;;;9.82;;
19339;SDS011;9804;52.350;6.684;2023-06-22T11:08:26;12.60;;;10.07;;
19339;SDS011;9804;52.350;6.684;2023-06-22T11:10:52;12.32;;;9.88;;
19339;SDS011;9804;52.350;6.684;2023-06-22T11:13:17;15.02;;;10.30;;
19339;SDS011;9804;52.350;6.684;2023-06-22T11:15:43;12.13;;;9.65;;
19339;SDS011;9804;52.350;6.684;2023-06-22T11:18:08;13.18;;;10.25;;
19339;SDS011;9804;52.350;6.684;2023-06-22T11:20:33;12.80;;;10.60;;
19339;SDS011;9804;52.350;6.684;2023-06-22T11:23:03;11.63;;;10.30;;
19339;SDS011;9804;52.350;6.684;2023-06-22T11:25:32;12.57;;;10.35;;
19339;SDS011;9804;52.350;6.684;2023-06-22T11:27:59;14.40;;;10.93;;
19339;SDS011;9804;52.350;6.684;2023-06-22T11:30:26;12.52;;;10.23;;
19339;SDS011;9804;52.350;6.684;2023-06-22T11:32:52;12.80;;;10.70;;
19339;SDS011;9804;52.350;6.684;2023-06-22T11:35:17;14.57;;;11.57;;
19339;SDS011;9804;52.350;6.684;2023-06-22T11:37:43;11.82;;;10.55;;
19339;SDS011;9804;52.350;6.684;2023-06-22T11:40:08;11.40;;;10.15;;
19339;SDS011;9804;52.350;6.684;2023-06-22T11:42:34;13.88;;;10.80;;
19339;SDS011;9804;52.350;6.684;2023-06-22T11:45:00;14.00;;;10.60;;
19339;SDS011;9804;52.350;6.684;2023-06-22T11:47:25;11.63;;;10.20;;
19339;SDS011;9804;52.350;6.684;2023-06-22T11:49:51;12.35;;;11.05;;
19339;SDS011;9804;52.350;6.684;2023-06-22T11:52:16;11.70;;;10.38;;
19339;SDS011;9804;52.350;6.684;2023-06-22T11:54:42;11.48;;;10.35;;
19339;SDS011;9804;52.350;6.684;2023-06-22T11:57:08;12.18;;;10.00;;
19339;SDS011;9804;52.350;6.684;2023-06-22T11:59:33;10.50;;;8.88;;
19339;SDS011;9804;52.350;6.684;2023-06-22T12:01:59;10.55;;;8.60;;
19339;SDS011;9804;52.350;6.684;2023-06-22T12:04:24;14.60;;;8.15;;
19339;SDS011;9804;52.350;6.684;2023-06-22T12:06:50;11.88;;;7.53;;
19339;SDS011;9804;52.350;6.684;2023-06-22T12:09:15;9.85;;;8.15;;
19339;SDS011;9804;52.350;6.684;2023-06-22T12:11:40;12.00;;;9.77;;
19339;SDS011;9804;52.350;6.684;2023-06-22T12:14:06;11.60;;;9.38;;
19339;SDS011;9804;52.350;6.684;2023-06-22T12:16:31;12.90;;;9.52;;
19339;SDS011;9804;52.350;6.684;2023-06-22T12:18:57;13.27;;;10.30;;
19339;SDS011;9804;52.350;6.684;2023-06-22T12:21:22;16.85;;;10.73;;
19339;SDS011;9804;52.350;6.684;2023-06-22T12:23:47;12.50;;;10.43;;
19339;SDS011;9804;52.350;6.684;2023-06-22T12:26:13;12.10;;;9.85;;
19339;SDS011;9804;52.350;6.684;2023-06-22T12:28:38;11.30;;;9.95;;
19339;SDS011;9804;52.350;6.684;2023-06-22T12:31:03;11.82;;;9.65;;
19339;SDS011;9804;52.350;6.684;2023-06-22T12:33:29;11.15;;;9.48;;
19339;SDS011;9804;52.350;6.684;2023-06-22T12:35:55;13.63;;;10.10;;
19339;SDS011;9804;52.350;6.684;2023-06-22T12:38:21;13.10;;;10.30;;
19339;SDS011;9804;52.350;6.684;2023-06-22T12:40:46;14.75;;;9.85;;
19339;SDS011;9804;52.350;6.684;2023-06-22T12:43:12;12.13;;;9.57;;
19339;SDS011;9804;52.350;6.684;2023-06-22T12:45:37;11.30;;;9.68;;
19339;SDS011;9804;52.350;6.684;2023-06-22T12:48:03;14.95;;;9.88;;
19339;SDS011;9804;52.350;6.684;2023-06-22T12:50:28;12.38;;;11.02;;
19339;SDS011;9804;52.350;6.684;2023-06-22T12:52:54;12.05;;;10.48;;
19339;SDS011;9804;52.350;6.684;2023-06-22T12:55:19;11.75;;;10.10;;
19339;SDS011;9804;52.350;6.684;2023-06-22T12:57:44;14.18;;;11.07;;
19339;SDS011;9804;52.350;6.684;2023-06-22T13:00:10;14.63;;;11.07;;
19339;SDS011;9804;52.350;6.684;2023-06-22T13:02:36;12.98;;;10.05;;
19339;SDS011;9804;52.350;6.684;2023-06-22T13:05:02;11.90;;;10.70;;
19339;SDS011;9804;52.350;6.684;2023-06-22T13:07:30;12.82;;;11.38;;
19339;SDS011;9804;52.350;6.684;2023-06-22T13:09:55;15.13;;;11.25;;
19339;SDS011;9804;52.350;6.684;2023-06-22T13:12:20;14.45;;;12.00;;
19339;SDS011;9804;52.350;6.684;2023-06-22T13:14:46;13.98;;;12.55;;
19339;SDS011;9804;52.350;6.684;2023-06-22T13:17:12;17.30;;;14.23;;
19339;SDS011;9804;52.350;6.684;2023-06-22T13:19:38;15.88;;;13.15;;
19339;SDS011;9804;52.350;6.684;2023-06-22T13:22:03;17.90;;;14.60;;
19339;SDS011;9804;52.350;6.684;2023-06-22T13:24:29;16.85;;;15.10;;
19339;SDS011;9804;52.350;6.684;2023-06-22T13:26:54;18.35;;;16.35;;
19339;SDS011;9804;52.350;6.684;2023-06-22T13:29:20;20.40;;;16.17;;
19339;SDS011;9804;52.350;6.684;2023-06-22T13:31:45;22.80;;;16.67;;
19339;SDS011;9804;52.350;6.684;2023-06-22T13:34:11;18.25;;;16.45;;
19339;SDS011;9804;52.350;6.684;2023-06-22T13:36:36;20.35;;;18.25;;
19339;SDS011;9804;52.350;6.684;2023-06-22T13:39:02;21.30;;;19.13;;
19339;SDS011;9804;52.350;6.684;2023-06-22T13:41:27;26.52;;;19.30;;
19339;SDS011;9804;52.350;6.684;2023-06-22T13:43:53;22.60;;;20.17;;
19339;SDS011;9804;52.350;6.684;2023-06-22T13:46:18;22.48;;;19.60;;
19339;SDS011;9804;52.350;6.684;2023-06-22T13:48:43;23.75;;;21.17;;
19339;SDS011;9804;52.350;6.684;2023-06-22T13:51:09;25.70;;;20.85;;
19339;SDS011;9804;52.350;6.684;2023-06-22T13:53:34;27.15;;;22.23;;
19339;SDS011;9804;52.350;6.684;2023-06-22T13:56:00;27.48;;;21.80;;
19339;SDS011;9804;52.350;6.684;2023-06-22T13:58:25;25.15;;;21.10;;
19339;SDS011;9804;52.350;6.684;2023-06-22T14:00:50;26.40;;;21.90;;
19339;SDS011;9804;52.350;6.684;2023-06-22T14:03:16;25.52;;;22.13;;
19339;SDS011;9804;52.350;6.684;2023-06-22T14:05:41;26.23;;;22.08;;
19339;SDS011;9804;52.350;6.684;2023-06-22T14:08:07;26.45;;;22.27;;
19339;SDS011;9804;52.350;6.684;2023-06-22T14:10:33;26.63;;;23.85;;
19339;SDS011;9804;52.350;6.684;2023-06-22T14:12:58;28.88;;;24.50;;
19339;SDS011;9804;52.350;6.684;2023-06-22T14:15:25;27.20;;;24.30;;
19339;SDS011;9804;52.350;6.684;2023-06-22T14:17:50;29.50;;;24.50;;
19339;SDS011;9804;52.350;6.684;2023-06-22T14:20:16;29.48;;;26.38;;
19339;SDS011;9804;52.350;6.684;2023-06-22T14:22:41;31.38;;;27.33;;
19339;SDS011;9804;52.350;6.684;2023-06-22T14:25:07;33.85;;;28.02;;
19339;SDS011;9804;52.350;6.684;2023-06-22T14:27:33;29.50;;;26.25;;
19339;SDS011;9804;52.350;6.684;2023-06-22T14:29:58;34.53;;;26.45;;
19339;SDS011;9804;52.350;6.684;2023-06-22T14:32:23;31.15;;;27.42;;
19339;SDS011;9804;52.350;6.684;2023-06-22T14:34:50;31.10;;;26.92;;